createdAt,value
2023-03-16T00:00:03.946Z,98.65
2023-03-16T00:01:03.855Z,98.75
2023-03-16T00:02:04.126Z,98.75
2023-03-16T00:03:04.085Z,98.75
2023-03-16T00:04:03.793Z,98.75
2023-03-16T00:05:03.790Z,98.86
2023-03-16T00:06:03.758Z,98.86
2023-03-16T00:07:03.785Z,98.86
2023-03-16T00:08:03.779Z,98.91
2023-03-16T00:09:03.733Z,98.91
2023-03-16T00:10:03.710Z,98.91
2023-03-16T00:11:03.702Z,99.01
2023-03-16T00:12:04.673Z,99.11
2023-03-16T00:13:03.942Z,99.11
2023-03-16T00:14:03.711Z,99.01
2023-03-16T00:15:03.688Z,99.01
2023-03-16T00:16:03.958Z,98.91
2023-03-16T00:17:03.636Z,98.85
2023-03-16T00:18:03.656Z,98.85
2023-03-16T00:19:03.603Z,98.74
2023-03-16T00:20:03.611Z,98.63
2023-03-16T00:21:03.588Z,98.68
2023-03-16T00:22:04.743Z,98.57
2023-03-16T00:23:03.575Z,98.57
2023-03-16T00:24:04.548Z,98.57
2023-03-16T00:25:03.626Z,98.68
2023-03-16T00:26:03.626Z,98.79
2023-03-16T00:27:03.496Z,98.79
2023-03-16T00:28:03.625Z,98.99
2023-03-16T00:29:04.572Z,99.21
2023-03-16T00:30:03.524Z,99.31
2023-03-16T00:31:03.477Z,99.31
2023-03-16T00:32:03.549Z,99.41
2023-03-16T00:33:03.502Z,99.41
2023-03-16T00:34:04.604Z,99.41
2023-03-16T00:35:03.864Z,99.41
2023-03-16T00:36:03.458Z,99.31
2023-03-16T00:37:04.319Z,99.31
2023-03-16T00:38:03.446Z,99.41
2023-03-16T00:39:04.315Z,99.52
2023-03-16T00:40:03.352Z,99.63
2023-03-16T00:41:03.369Z,99.73
2023-03-16T00:42:03.308Z,99.73
2023-03-16T00:43:03.323Z,99.63
2023-03-16T00:44:03.363Z,99.63
2023-03-16T00:45:03.304Z,99.73
2023-03-16T00:46:03.393Z,99.84
2023-03-16T00:47:03.259Z,99.73
2023-03-16T00:48:03.270Z,99.73
2023-03-16T00:49:03.247Z,99.73
2023-03-16T00:50:03.955Z,99.73
2023-03-16T00:51:03.568Z,99.84
2023-03-16T00:52:03.230Z,99.84
2023-03-16T00:53:04.321Z,99.84
2023-03-16T00:54:03.201Z,99.84
2023-03-16T00:55:04.116Z,99.84
2023-03-16T00:56:03.251Z,99.99
2023-03-16T00:57:03.127Z,99.99
2023-03-16T00:58:03.131Z,99.99
2023-03-16T00:59:03.148Z,99.99
2023-03-16T01:00:03.390Z,99.90
2023-03-16T01:01:03.100Z,99.84
2023-03-16T01:02:03.147Z,99.84
2023-03-16T01:03:03.124Z,99.95
2023-03-16T01:04:03.189Z,99.95
2023-03-16T01:05:03.047Z,99.99
2023-03-16T01:06:03.985Z,99.99
2023-03-16T01:07:03.024Z,99.99
2023-03-16T01:08:03.904Z,99.99
2023-03-16T01:09:03.033Z,99.99
2023-03-16T01:10:03.203Z,99.99
2023-03-16T01:11:02.947Z,99.99
2023-03-16T01:12:04.027Z,99.95
2023-03-16T01:13:03.228Z,99.99
2023-03-16T01:14:03.044Z,99.99
2023-03-16T01:15:02.907Z,99.99
2023-03-16T01:16:02.958Z,99.99
2023-03-16T01:17:03.065Z,99.99
2023-03-16T01:18:03.111Z,99.99
2023-03-16T01:19:03.879Z,99.99
2023-03-16T01:20:02.880Z,99.99
2023-03-16T01:21:03.035Z,99.99
2023-03-16T01:22:02.839Z,99.99
2023-03-16T01:23:02.810Z,99.99
2023-03-16T01:24:02.841Z,99.99
2023-03-16T01:25:03.809Z,99.99
2023-03-16T01:26:02.927Z,99.99
2023-03-16T01:27:03.612Z,99.99
2023-03-16T01:28:02.770Z,99.99
2023-03-16T01:29:02.933Z,99.99
2023-03-16T01:30:02.721Z,99.99
2023-03-16T01:31:02.781Z,99.99
2023-03-16T01:32:03.642Z,99.99
2023-03-16T01:33:02.723Z,99.99
2023-03-16T01:34:02.912Z,99.99
2023-03-16T01:35:02.740Z,99.99
2023-03-16T01:36:02.654Z,99.99
2023-03-16T01:37:02.625Z,99.99
2023-03-16T01:38:03.403Z,99.99
2023-03-16T01:39:02.604Z,99.99
2023-03-16T01:40:02.627Z,99.99
2023-03-16T01:41:03.119Z,99.99
2023-03-16T01:42:02.618Z,99.99
2023-03-16T01:43:02.538Z,99.99
2023-03-16T01:44:02.592Z,99.99
2023-03-16T01:45:03.419Z,99.99
2023-03-16T01:46:02.591Z,99.99
2023-03-16T01:47:02.515Z,99.99
2023-03-16T01:48:02.486Z,99.99
2023-03-16T01:49:03.547Z,99.99
2023-03-16T01:50:02.680Z,99.99
2023-03-16T01:51:04.565Z,99.99
2023-03-16T01:52:02.487Z,99.99
2023-03-16T01:53:02.533Z,99.99
2023-03-16T01:54:02.513Z,99.99
2023-03-16T01:55:02.473Z,99.99
2023-03-16T01:56:02.380Z,99.99
2023-03-16T01:57:02.641Z,99.99
2023-03-16T01:58:02.451Z,99.99
2023-03-16T01:59:02.382Z,99.99
2023-03-16T02:00:02.378Z,99.99
2023-03-16T02:01:02.459Z,99.99
2023-03-16T02:02:02.310Z,99.99
2023-03-16T02:03:02.343Z,99.99
2023-03-16T02:04:02.338Z,99.99
2023-03-16T02:05:03.552Z,99.99
2023-03-16T02:06:02.446Z,99.99
2023-03-16T02:07:03.366Z,99.99
2023-03-16T02:08:02.254Z,99.99
2023-03-16T02:09:02.382Z,99.99
2023-03-16T02:10:03.080Z,99.99
2023-03-16T02:11:02.978Z,99.99
2023-03-16T02:12:02.779Z,99.99
2023-03-16T02:13:02.355Z,99.99
2023-03-16T02:14:03.195Z,99.99
2023-03-16T02:15:02.155Z,99.99
2023-03-16T02:16:03.198Z,99.99
2023-03-16T02:17:02.902Z,99.99
2023-03-16T02:18:02.221Z,99.99
2023-03-16T02:19:03.234Z,99.99
2023-03-16T02:20:03.131Z,99.99
2023-03-16T02:21:02.165Z,99.99
2023-03-16T02:22:02.231Z,99.99
2023-03-16T02:23:02.217Z,99.99
2023-03-16T02:24:02.139Z,99.99
2023-03-16T02:25:02.054Z,99.99
2023-03-16T02:26:02.139Z,99.99
2023-03-16T02:27:02.030Z,99.99
2023-03-16T02:28:02.076Z,99.99
2023-03-16T02:29:02.100Z,99.99
2023-03-16T02:30:01.980Z,99.99
2023-03-16T02:31:03.140Z,99.99
2023-03-16T02:32:02.016Z,99.99
2023-03-16T02:33:02.943Z,99.99
2023-03-16T02:34:02.879Z,99.99
2023-03-16T02:35:01.928Z,99.99
2023-03-16T02:36:03.189Z,99.99
2023-03-16T02:37:01.906Z,99.99
2023-03-16T02:38:02.884Z,99.99
2023-03-16T02:39:01.912Z,99.99
2023-03-16T02:40:01.945Z,99.99
2023-03-16T02:41:01.863Z,99.99
2023-03-16T02:42:03.171Z,99.99
2023-03-16T02:43:01.844Z,99.99
2023-03-16T02:44:01.879Z,99.99
2023-03-16T02:45:02.799Z,99.99
2023-03-16T02:46:02.793Z,99.99
2023-03-16T02:47:01.829Z,99.99
2023-03-16T02:48:02.033Z,99.99
2023-03-16T02:49:01.763Z,99.99
2023-03-16T02:50:01.759Z,99.99
2023-03-16T02:51:01.757Z,99.99
2023-03-16T02:52:01.713Z,99.99
2023-03-16T02:53:01.702Z,99.99
2023-03-16T02:54:01.715Z,99.99
2023-03-16T02:55:02.666Z,99.99
2023-03-16T02:56:02.750Z,99.99
2023-03-16T02:57:01.878Z,99.99
2023-03-16T02:58:02.286Z,99.99
2023-03-16T02:59:01.816Z,99.99
2023-03-16T03:00:01.623Z,99.99
2023-03-16T03:01:02.777Z,99.99
2023-03-16T03:02:01.727Z,99.99
2023-03-16T03:03:01.710Z,99.99
2023-03-16T03:04:01.616Z,99.99
2023-03-16T03:05:01.600Z,99.99
2023-03-16T03:06:01.661Z,99.99
2023-03-16T03:07:01.610Z,99.99
2023-03-16T03:08:02.618Z,99.99
2023-03-16T03:09:01.530Z,99.99
2023-03-16T03:10:01.715Z,99.99
2023-03-16T03:11:01.533Z,99.99
2023-03-16T03:12:01.467Z,99.99
2023-03-16T03:13:01.708Z,99.99
2023-03-16T03:14:02.106Z,99.99
2023-03-16T03:15:01.451Z,99.99
2023-03-16T03:16:01.480Z,99.99
2023-03-16T03:17:01.420Z,99.99
2023-03-16T03:18:01.420Z,99.99
2023-03-16T03:19:01.386Z,99.99
2023-03-16T03:20:02.487Z,99.99
2023-03-16T03:21:01.359Z,99.99
2023-03-16T03:22:01.370Z,99.99
2023-03-16T03:23:01.373Z,99.99
2023-03-16T03:24:01.637Z,99.99
2023-03-16T03:25:01.480Z,99.99
2023-03-16T03:26:01.302Z,99.99
2023-03-16T03:27:01.291Z,99.99
2023-03-16T03:28:01.402Z,99.99
2023-03-16T03:29:02.141Z,99.99
2023-03-16T03:30:01.401Z,99.99
2023-03-16T03:31:01.235Z,99.99
2023-03-16T03:32:01.239Z,99.99
2023-03-16T03:33:01.350Z,99.99
2023-03-16T03:34:01.399Z,99.99
2023-03-16T03:35:01.338Z,99.99
2023-03-16T03:36:01.222Z,99.99
2023-03-16T03:37:01.169Z,99.99
2023-03-16T03:38:01.154Z,99.99
2023-03-16T03:39:02.205Z,99.99
2023-03-16T03:40:01.193Z,99.99
2023-03-16T03:41:01.134Z,99.99
2023-03-16T03:42:01.138Z,99.99
2023-03-16T03:43:02.549Z,99.99
2023-03-16T03:44:01.241Z,99.99
2023-03-16T03:45:01.160Z,99.99
2023-03-16T03:46:01.500Z,99.99
2023-03-16T03:47:01.094Z,99.99
2023-03-16T03:48:01.090Z,99.99
2023-03-16T03:49:01.028Z,99.99
2023-03-16T03:50:01.008Z,99.99
2023-03-16T03:51:01.024Z,99.99
2023-03-16T03:52:01.678Z,99.99
2023-03-16T03:53:02.450Z,99.99
2023-03-16T03:54:01.008Z,99.99
2023-03-16T03:55:00.931Z,99.99
2023-03-16T03:56:00.986Z,99.99
2023-03-16T03:57:00.913Z,99.99
2023-03-16T03:58:01.015Z,99.99
2023-03-16T03:59:01.159Z,99.99
2023-03-16T04:00:01.008Z,99.99
2023-03-16T04:01:02.138Z,99.99
2023-03-16T04:02:01.196Z,99.99
2023-03-16T04:03:00.919Z,99.99
2023-03-16T04:04:00.919Z,99.99
2023-03-16T04:05:00.995Z,99.99
2023-03-16T04:06:00.807Z,99.99
2023-03-16T04:07:00.832Z,99.99
2023-03-16T04:08:00.819Z,99.99
2023-03-16T04:09:01.023Z,99.99
2023-03-16T04:10:00.781Z,99.99
2023-03-16T04:11:00.806Z,99.99
2023-03-16T04:12:00.719Z,99.99
2023-03-16T04:13:01.077Z,99.99
2023-03-16T04:14:01.923Z,99.99
2023-03-16T04:15:00.720Z,99.99
2023-03-16T04:16:00.706Z,99.99
2023-03-16T04:17:01.779Z,99.99
2023-03-16T04:18:01.528Z,99.99
2023-03-16T04:19:00.648Z,99.99
2023-03-16T04:20:00.727Z,99.99
2023-03-16T04:21:00.647Z,99.99
2023-03-16T04:22:00.694Z,99.99
2023-03-16T04:23:00.646Z,99.99
2023-03-16T04:24:00.584Z,99.99
2023-03-16T04:25:00.613Z,99.99
2023-03-16T04:26:01.814Z,99.99
2023-03-16T04:27:01.717Z,99.99
2023-03-16T04:28:00.650Z,99.99
2023-03-16T04:29:01.501Z,99.99
2023-03-16T04:30:00.591Z,99.99
2023-03-16T04:31:00.576Z,99.99
2023-03-16T04:32:00.613Z,99.99
2023-03-16T04:33:00.546Z,99.99
2023-03-16T04:34:00.527Z,99.99
2023-03-16T04:35:00.470Z,99.99
2023-03-16T04:36:00.584Z,99.99
2023-03-16T04:37:00.514Z,99.99
2023-03-16T04:38:00.512Z,99.99
2023-03-16T04:39:00.406Z,99.99
2023-03-16T04:40:00.403Z,99.99
2023-03-16T04:41:00.380Z,99.99
2023-03-16T04:42:00.360Z,99.99
2023-03-16T04:43:00.397Z,99.99
2023-03-16T04:44:00.351Z,99.99
2023-03-16T04:45:00.351Z,99.99
2023-03-16T04:46:00.429Z,99.99
2023-03-16T04:47:00.346Z,99.99
2023-03-16T04:48:00.320Z,99.99
2023-03-16T04:49:01.198Z,99.99
2023-03-16T04:50:00.367Z,99.99
2023-03-16T04:51:00.397Z,99.99
2023-03-16T04:52:00.319Z,99.99
2023-03-16T04:53:00.303Z,99.99
2023-03-16T04:54:00.251Z,99.99
2023-03-16T04:55:00.229Z,99.99
2023-03-16T04:56:00.952Z,99.99
2023-03-16T04:57:00.160Z,99.99
2023-03-16T04:58:00.247Z,99.99
2023-03-16T04:59:00.196Z,99.99
2023-03-16T05:00:00.169Z,99.99
2023-03-16T05:01:00.142Z,99.99
2023-03-16T05:02:00.138Z,99.99
2023-03-16T05:03:00.152Z,99.99
2023-03-16T05:04:00.240Z,99.99
2023-03-16T05:05:01.126Z,99.99
2023-03-16T05:06:00.327Z,99.99
2023-03-16T05:07:00.060Z,99.99
2023-03-16T05:08:00.152Z,99.99
2023-03-16T05:09:00.090Z,99.99
2023-03-16T05:10:00.036Z,99.99
2023-03-16T05:11:00.105Z,99.99
2023-03-16T05:11:59.981Z,99.99
2023-03-16T05:12:59.964Z,99.99
2023-03-16T05:13:59.988Z,99.99
2023-03-16T05:15:01.183Z,99.99
2023-03-16T05:16:00.579Z,99.99
2023-03-16T05:16:59.932Z,99.99
2023-03-16T05:17:59.912Z,99.99
2023-03-16T05:18:59.918Z,99.99
2023-03-16T05:19:59.912Z,99.99
2023-03-16T05:21:01.121Z,99.99
2023-03-16T05:21:59.890Z,99.99
2023-03-16T05:22:59.872Z,99.99
2023-03-16T05:23:59.836Z,99.99
2023-03-16T05:24:59.860Z,99.99
2023-03-16T05:25:59.866Z,99.99
2023-03-16T05:27:00.253Z,99.99
2023-03-16T05:27:59.804Z,99.99
2023-03-16T05:29:00.854Z,99.99
2023-03-16T05:29:59.803Z,99.99
2023-03-16T05:30:59.768Z,99.99
2023-03-16T05:31:59.762Z,99.99
2023-03-16T05:32:59.914Z,99.99
2023-03-16T05:33:59.785Z,99.99
2023-03-16T05:34:59.702Z,99.99
2023-03-16T05:35:59.770Z,99.99
2023-03-16T05:36:59.694Z,99.99
2023-03-16T05:37:59.700Z,99.99
2023-03-16T05:38:59.655Z,99.99
2023-03-16T05:39:59.686Z,99.99
2023-03-16T05:40:59.652Z,99.99
2023-03-16T05:41:59.856Z,99.99
2023-03-16T05:42:59.635Z,99.99
2023-03-16T05:43:59.585Z,99.99
2023-03-16T05:44:59.577Z,99.99
2023-03-16T05:46:00.764Z,99.99
2023-03-16T05:46:59.641Z,99.99
2023-03-16T05:47:59.582Z,99.99
2023-03-16T05:48:59.588Z,99.99
2023-03-16T05:49:59.541Z,99.99
2023-03-16T05:50:59.589Z,99.99
2023-03-16T05:51:59.506Z,99.99
2023-03-16T05:52:59.502Z,99.99
2023-03-16T05:53:59.476Z,99.99
2023-03-16T05:54:59.627Z,99.99
2023-03-16T05:55:59.512Z,99.99
2023-03-16T05:56:59.465Z,99.99
2023-03-16T05:57:59.436Z,99.99
2023-03-16T05:59:00.328Z,99.99
2023-03-16T05:59:59.530Z,99.99
2023-03-16T06:00:59.423Z,99.99
2023-03-16T06:01:59.398Z,99.99
2023-03-16T06:02:59.401Z,99.99
2023-03-16T06:03:59.354Z,99.99
2023-03-16T06:04:59.364Z,99.99
2023-03-16T06:05:59.429Z,99.99
2023-03-16T06:06:59.452Z,99.99
2023-03-16T06:07:59.341Z,99.99
2023-03-16T06:08:59.288Z,99.91
2023-03-16T06:09:59.328Z,99.70
2023-03-16T06:10:59.375Z,99.38
2023-03-16T06:12:00.319Z,99.34
2023-03-16T06:13:00.024Z,99.34
2023-03-16T06:13:59.258Z,99.30
2023-03-16T06:14:59.227Z,99.30
2023-03-16T06:15:59.250Z,99.15
2023-03-16T06:16:59.245Z,99.15
2023-03-16T06:17:59.236Z,99.04
2023-03-16T06:18:59.935Z,98.89
2023-03-16T06:19:59.679Z,98.68
2023-03-16T06:20:59.346Z,98.43
2023-03-16T06:21:59.186Z,98.21
2023-03-16T06:22:59.138Z,98.11
2023-03-16T06:23:59.214Z,97.96
2023-03-16T06:24:59.093Z,97.64
2023-03-16T06:25:59.084Z,97.33
2023-03-16T06:26:59.128Z,97.01
2023-03-16T06:27:59.086Z,96.86
2023-03-16T06:28:59.033Z,96.65
2023-03-16T06:29:59.157Z,96.55
2023-03-16T06:30:59.154Z,96.44
2023-03-16T06:31:59.197Z,96.29
2023-03-16T06:32:59.878Z,96.29
2023-03-16T06:34:00.260Z,95.97
2023-03-16T06:34:58.988Z,95.51
2023-03-16T06:35:59.065Z,95.30
2023-03-16T06:36:58.960Z,95.30
2023-03-16T06:37:59.867Z,95.26
2023-03-16T06:38:58.949Z,95.26
2023-03-16T06:39:58.929Z,95.26
2023-03-16T06:40:58.902Z,94.90
2023-03-16T06:41:58.977Z,94.48
2023-03-16T06:42:58.949Z,94.17
2023-03-16T06:43:59.242Z,93.91
2023-03-16T06:44:58.848Z,93.91
2023-03-16T06:45:58.862Z,93.55
2023-03-16T06:46:58.913Z,93.24
2023-03-16T06:47:58.841Z,93.19
2023-03-16T06:48:58.793Z,92.67
2023-03-16T06:49:58.837Z,92.52
2023-03-16T06:50:58.883Z,92.27
2023-03-16T06:51:58.839Z,91.75
2023-03-16T06:52:58.780Z,91.28
2023-03-16T06:53:58.761Z,90.76
2023-03-16T06:54:58.736Z,90.41
2023-03-16T06:55:58.751Z,89.78
2023-03-16T06:56:58.731Z,89.32
2023-03-16T06:57:58.746Z,89.11
2023-03-16T06:58:58.743Z,89.70
2023-03-16T06:59:58.812Z,89.70
2023-03-16T07:00:58.682Z,89.45
2023-03-16T07:01:58.728Z,88.29
2023-03-16T07:03:00.475Z,88.78
2023-03-16T07:03:58.749Z,88.15
2023-03-16T07:04:58.590Z,87.59
2023-03-16T07:05:59.381Z,87.07
2023-03-16T07:06:58.628Z,86.65
2023-03-16T07:07:58.552Z,86.61
2023-03-16T07:08:58.597Z,85.88
2023-03-16T07:09:58.550Z,85.04
2023-03-16T07:10:58.521Z,84.79
2023-03-16T07:11:58.617Z,83.54
2023-03-16T07:12:58.591Z,83.71
2023-03-16T07:13:58.489Z,84.55
2023-03-16T07:14:58.713Z,83.71
2023-03-16T07:15:58.731Z,83.81
2023-03-16T07:16:58.537Z,83.78
2023-03-16T07:17:58.417Z,82.94
2023-03-16T07:18:58.431Z,83.04
2023-03-16T07:19:58.417Z,85.24
2023-03-16T07:20:58.406Z,84.40
2023-03-16T07:21:58.375Z,84.72
2023-03-16T07:22:58.484Z,84.36
2023-03-16T07:23:58.347Z,83.11
2023-03-16T07:24:58.337Z,83.53
2023-03-16T07:25:58.390Z,83.39
2023-03-16T07:26:58.378Z,82.45
2023-03-16T07:27:58.358Z,82.65
2023-03-16T07:28:58.328Z,82.55
2023-03-16T07:29:58.290Z,82.82
2023-03-16T07:31:03.917Z,82.62
2023-03-16T07:31:59.297Z,81.26
2023-03-16T07:32:58.399Z,82.20
2023-03-16T07:33:58.239Z,82.10
2023-03-16T07:34:59.349Z,81.54
2023-03-16T07:35:58.235Z,81.43
2023-03-16T07:36:58.501Z,80.71
2023-03-16T07:37:58.291Z,79.52
2023-03-16T07:38:58.168Z,80.67
2023-03-16T07:39:58.155Z,81.29
2023-03-16T07:40:58.326Z,80.26
2023-03-16T07:41:58.129Z,80.01
2023-03-16T07:42:58.199Z,80.11
2023-03-16T07:43:58.098Z,79.91
2023-03-16T07:44:58.144Z,79.69
2023-03-16T07:45:58.172Z,79.38
2023-03-16T07:46:58.060Z,79.87
2023-03-16T07:47:58.979Z,78.72
2023-03-16T07:48:58.051Z,79.87
2023-03-16T07:49:58.067Z,78.83
2023-03-16T07:50:58.009Z,78.31
2023-03-16T07:51:58.089Z,77.48
2023-03-16T07:52:57.999Z,77.23
2023-03-16T07:53:58.022Z,77.55
2023-03-16T07:54:58.067Z,78.27
2023-03-16T07:55:58.019Z,77.61
2023-03-16T07:56:57.948Z,77.61
2023-03-16T07:57:57.950Z,77.09
2023-03-16T07:58:57.912Z,77.09
2023-03-16T07:59:57.899Z,75.01
2023-03-16T08:00:57.883Z,77.51
2023-03-16T08:01:57.983Z,76.68
2023-03-16T08:02:57.883Z,76.16
2023-03-16T08:03:57.904Z,75.12
2023-03-16T08:04:57.862Z,76.16
2023-03-16T08:05:57.937Z,75.01
2023-03-16T08:06:57.828Z,74.49
2023-03-16T08:07:57.904Z,76.02
2023-03-16T08:08:57.837Z,75.29
2023-03-16T08:09:57.841Z,75.60
2023-03-16T08:10:57.789Z,76.23
2023-03-16T08:11:57.759Z,74.36
2023-03-16T08:12:58.990Z,75.09
2023-03-16T08:13:57.762Z,75.19
2023-03-16T08:14:57.725Z,75.05
2023-03-16T08:15:57.783Z,74.01
2023-03-16T08:16:57.714Z,74.32
2023-03-16T08:17:57.753Z,72.87
2023-03-16T08:18:57.922Z,73.15
2023-03-16T08:19:57.684Z,72.84
2023-03-16T08:20:57.715Z,72.84
2023-03-16T08:22:01.466Z,72.63
2023-03-16T08:22:57.627Z,71.39
2023-03-16T08:23:57.607Z,72.18
2023-03-16T08:24:57.648Z,71.97
2023-03-16T08:25:57.602Z,71.56
2023-03-16T08:26:57.629Z,71.35
2023-03-16T08:27:57.886Z,70.90
2023-03-16T08:28:57.654Z,70.49
2023-03-16T08:29:57.524Z,70.80
2023-03-16T08:30:57.545Z,71.53
2023-03-16T08:31:58.049Z,70.80
2023-03-16T08:32:58.568Z,69.76
2023-03-16T08:33:57.505Z,69.66
2023-03-16T08:34:57.551Z,69.45
2023-03-16T08:35:57.512Z,69.42
2023-03-16T08:36:57.475Z,70.36
2023-03-16T08:37:57.486Z,68.80
2023-03-16T08:39:06.460Z,68.35
2023-03-16T08:39:58.418Z,68.46
2023-03-16T08:40:57.400Z,66.69
2023-03-16T08:41:57.362Z,66.59
2023-03-16T08:42:57.430Z,65.42
2023-03-16T08:43:57.416Z,65.73
2023-03-16T08:44:57.447Z,65.01
2023-03-16T08:45:57.321Z,64.98
2023-03-16T08:46:57.383Z,64.36
2023-03-16T08:47:57.328Z,64.67
2023-03-16T08:48:57.323Z,64.25
2023-03-16T08:49:57.274Z,63.29
2023-03-16T08:50:57.419Z,64.12
2023-03-16T08:51:57.264Z,63.60
2023-03-16T08:52:58.182Z,64.12
2023-03-16T08:53:57.393Z,64.04
2023-03-16T08:55:03.287Z,64.36
2023-03-16T08:55:58.225Z,64.43
2023-03-16T08:56:57.196Z,64.02
2023-03-16T08:57:57.196Z,63.06
2023-03-16T08:58:57.178Z,62.65
2023-03-16T08:59:57.231Z,62.85
2023-03-16T09:00:57.155Z,63.06
2023-03-16T09:01:57.207Z,62.44
2023-03-16T09:02:57.108Z,60.86
2023-03-16T09:03:58.179Z,60.44
2023-03-16T09:04:57.103Z,62.20
2023-03-16T09:05:57.943Z,60.42
2023-03-16T09:07:08.309Z,60.00
2023-03-16T09:07:58.038Z,60.63
2023-03-16T09:08:57.096Z,60.31
2023-03-16T09:09:57.035Z,60.00
2023-03-16T09:10:57.031Z,59.90
2023-03-16T09:11:57.008Z,60.63
2023-03-16T09:12:56.987Z,59.90
2023-03-16T09:13:56.954Z,59.69
2023-03-16T09:14:56.980Z,59.18
2023-03-16T09:15:57.030Z,58.94
2023-03-16T09:16:56.913Z,59.56
2023-03-16T09:17:56.948Z,59.25
2023-03-16T09:18:56.891Z,59.88
2023-03-16T09:20:05.538Z,59.84
2023-03-16T09:20:59.928Z,57.06
2023-03-16T09:21:56.858Z,57.78
2023-03-16T09:22:56.945Z,58.20
2023-03-16T09:23:56.816Z,57.06
2023-03-16T09:24:56.846Z,57.24
2023-03-16T09:25:56.813Z,56.73
2023-03-16T09:26:56.848Z,58.17
2023-03-16T09:27:56.773Z,57.52
2023-03-16T09:28:56.768Z,57.01
2023-03-16T09:29:56.785Z,57.60
2023-03-16T09:30:57.259Z,56.67
2023-03-16T09:31:56.790Z,56.46
2023-03-16T09:32:56.966Z,54.71
2023-03-16T09:33:56.848Z,55.43
2023-03-16T09:34:56.729Z,54.30
2023-03-16T09:35:56.897Z,54.48
2023-03-16T09:36:56.685Z,53.89
2023-03-16T09:38:05.629Z,55.30
2023-03-16T09:38:57.706Z,55.13
2023-03-16T09:40:03.264Z,55.13
2023-03-16T09:40:57.645Z,52.24
2023-03-16T09:41:56.626Z,53.38
2023-03-16T09:42:56.601Z,53.89
2023-03-16T09:43:56.583Z,53.48
2023-03-16T09:44:57.270Z,54.41
2023-03-16T09:45:56.684Z,53.06
2023-03-16T09:46:56.539Z,53.38
2023-03-16T09:47:56.530Z,53.27
2023-03-16T09:48:56.790Z,52.76
2023-03-16T09:49:56.529Z,53.06
2023-03-16T09:50:56.641Z,52.66
2023-03-16T09:51:56.459Z,53.35
2023-03-16T09:52:56.530Z,53.04
2023-03-16T09:53:57.296Z,53.04
2023-03-16T09:54:57.347Z,52.83
2023-03-16T09:55:56.551Z,52.22
2023-03-16T09:56:56.536Z,52.83
2023-03-16T09:57:57.170Z,54.38
2023-03-16T09:58:56.413Z,53.66
2023-03-16T09:59:56.364Z,53.33
2023-03-16T10:00:56.554Z,51.89
2023-03-16T10:01:56.559Z,51.98
2023-03-16T10:02:56.326Z,51.89
2023-03-16T10:03:56.358Z,52.09
2023-03-16T10:04:56.425Z,50.03
2023-03-16T10:05:56.294Z,50.62
2023-03-16T10:07:17.404Z,50.83
2023-03-16T10:07:56.298Z,50.42
2023-03-16T10:08:56.244Z,49.08
2023-03-16T10:09:56.874Z,48.36
2023-03-16T10:10:57.343Z,48.16
2023-03-16T10:11:56.256Z,48.57
2023-03-16T10:12:58.548Z,47.33
2023-03-16T10:13:57.056Z,46.72
2023-03-16T10:14:56.453Z,47.95
2023-03-16T10:15:56.266Z,48.57
2023-03-16T10:16:56.261Z,47.23
2023-03-16T10:17:56.125Z,47.64
2023-03-16T10:18:57.085Z,46.92
2023-03-16T10:19:56.986Z,46.61
2023-03-16T10:20:56.107Z,47.13
2023-03-16T10:21:56.124Z,47.54
2023-03-16T10:22:57.222Z,47.23
2023-03-16T10:23:56.048Z,48.05
2023-03-16T10:24:56.085Z,47.33
2023-03-16T10:25:56.032Z,46.90
2023-03-16T10:26:56.066Z,47.20
2023-03-16T10:27:56.198Z,46.28
2023-03-16T10:28:56.016Z,46.61
2023-03-16T10:29:55.973Z,46.20
2023-03-16T10:30:55.960Z,45.97
2023-03-16T10:31:56.040Z,45.97
2023-03-16T10:32:56.015Z,45.56
2023-03-16T10:33:56.002Z,45.04
2023-03-16T10:34:57.085Z,44.76
2023-03-16T10:35:56.880Z,44.95
2023-03-16T10:36:55.907Z,44.64
2023-03-16T10:37:55.889Z,43.81
2023-03-16T10:38:55.915Z,44.95
2023-03-16T10:39:56.038Z,45.04
2023-03-16T10:40:55.828Z,44.56
2023-03-16T10:41:55.814Z,45.15
2023-03-16T10:42:55.898Z,44.84
2023-03-16T10:43:55.815Z,45.46
2023-03-16T10:44:55.784Z,45.67
2023-03-16T10:45:55.830Z,46.08
2023-03-16T10:46:55.804Z,47.20
2023-03-16T10:47:57.219Z,46.59
2023-03-16T10:48:55.971Z,45.97
2023-03-16T10:49:55.748Z,46.80
2023-03-16T10:50:55.742Z,46.98
2023-03-16T10:51:55.695Z,47.60
2023-03-16T10:52:57.662Z,48.11
2023-03-16T10:53:56.407Z,47.91
2023-03-16T10:54:55.994Z,48.52
2023-03-16T10:55:55.704Z,48.11
2023-03-16T10:56:55.664Z,46.98
2023-03-16T10:57:55.645Z,47.49
2023-03-16T10:58:56.630Z,47.39
2023-03-16T10:59:56.195Z,46.77
2023-03-16T11:00:55.659Z,47.60
2023-03-16T11:01:56.553Z,46.75
2023-03-16T11:02:56.579Z,48.29
2023-03-16T11:03:55.581Z,46.96
2023-03-16T11:04:55.798Z,47.78
2023-03-16T11:05:55.527Z,46.24
2023-03-16T11:06:55.563Z,48.38
2023-03-16T11:07:55.540Z,47.58
2023-03-16T11:08:55.489Z,46.86
2023-03-16T11:09:55.499Z,45.93
2023-03-16T11:10:56.380Z,45.52
2023-03-16T11:11:55.472Z,45.72
2023-03-16T11:12:58.350Z,46.96
2023-03-16T11:13:55.540Z,46.55
2023-03-16T11:14:55.511Z,47.16
2023-03-16T11:15:55.394Z,46.83
2023-03-16T11:16:55.478Z,46.73
2023-03-16T11:17:55.399Z,48.07
2023-03-16T11:18:55.412Z,46.65
2023-03-16T11:19:55.328Z,47.14
2023-03-16T11:20:55.322Z,47.04
2023-03-16T11:21:55.373Z,46.62
2023-03-16T11:22:55.297Z,45.91
2023-03-16T11:23:55.325Z,45.68
2023-03-16T11:24:55.358Z,46.30
2023-03-16T11:25:55.398Z,45.68
2023-03-16T11:26:55.295Z,45.68
2023-03-16T11:27:55.224Z,45.17
2023-03-16T11:28:55.386Z,45.40
2023-03-16T11:29:55.203Z,45.50
2023-03-16T11:30:55.468Z,44.98
2023-03-16T11:31:55.208Z,45.78
2023-03-16T11:32:55.210Z,46.50
2023-03-16T11:33:55.211Z,45.48
2023-03-16T11:34:55.125Z,45.45
2023-03-16T11:35:59.219Z,44.94
2023-03-16T11:36:55.224Z,44.84
2023-03-16T11:37:55.148Z,44.94
2023-03-16T11:38:55.814Z,45.15
2023-03-16T11:39:55.186Z,45.15
2023-03-16T11:40:55.061Z,45.15
2023-03-16T11:41:55.073Z,44.23
2023-03-16T11:42:55.050Z,45.25
2023-03-16T11:43:55.057Z,44.33
2023-03-16T11:44:55.092Z,44.84
2023-03-16T11:45:55.112Z,44.14
2023-03-16T11:46:55.002Z,44.24
2023-03-16T11:47:54.987Z,44.45
2023-03-16T11:48:54.974Z,44.86
2023-03-16T11:49:55.040Z,44.14
2023-03-16T11:50:55.049Z,44.86
2023-03-16T11:51:55.386Z,44.45
2023-03-16T11:52:54.952Z,44.76
2023-03-16T11:53:54.897Z,44.64
2023-03-16T11:54:54.911Z,44.02
2023-03-16T11:55:54.887Z,44.24
2023-03-16T11:56:54.872Z,44.14
2023-03-16T11:57:54.837Z,43.73
2023-03-16T11:58:54.828Z,43.94
2023-03-16T12:00:01.042Z,43.42
2023-03-16T12:00:55.818Z,42.91
2023-03-16T12:02:00.760Z,43.63
2023-03-16T12:02:55.937Z,42.81
2023-03-16T12:03:55.001Z,43.96
2023-03-16T12:04:54.852Z,43.75
2023-03-16T12:05:54.790Z,44.17
2023-03-16T12:06:54.705Z,43.85
2023-03-16T12:07:55.065Z,44.26
2023-03-16T12:08:55.066Z,43.75
2023-03-16T12:09:54.677Z,44.26
2023-03-16T12:10:54.671Z,42.42
2023-03-16T12:11:54.640Z,43.55
2023-03-16T12:12:54.682Z,43.55
2023-03-16T12:13:54.642Z,43.75
2023-03-16T12:14:54.777Z,44.14
2023-03-16T12:15:54.729Z,44.45
2023-03-16T12:16:54.732Z,44.04
2023-03-16T12:17:54.740Z,44.65
2023-03-16T12:18:54.548Z,45.48
2023-03-16T12:19:54.530Z,44.12
2023-03-16T12:20:55.105Z,42.89
2023-03-16T12:21:54.509Z,44.12
2023-03-16T12:22:54.532Z,42.89
2023-03-16T12:23:54.546Z,42.38
2023-03-16T12:24:54.491Z,42.48
2023-03-16T12:25:54.544Z,42.07
2023-03-16T12:26:54.429Z,41.56
2023-03-16T12:27:54.932Z,42.91
2023-03-16T12:28:54.436Z,42.91
2023-03-16T12:29:55.251Z,42.09
2023-03-16T12:30:54.557Z,42.17
2023-03-16T12:31:54.444Z,41.97
2023-03-16T12:32:54.425Z,41.66
2023-03-16T12:33:54.375Z,42.58
2023-03-16T12:34:54.463Z,42.46
2023-03-16T12:35:54.447Z,41.53
2023-03-16T12:36:54.388Z,41.66
2023-03-16T12:37:54.378Z,41.44
2023-03-16T12:38:54.335Z,42.17
2023-03-16T12:39:54.343Z,41.46
2023-03-16T12:40:54.266Z,42.27
2023-03-16T12:41:54.284Z,42.66
2023-03-16T12:42:54.261Z,43.28
2023-03-16T12:43:54.545Z,41.53
2023-03-16T12:44:54.358Z,42.15
2023-03-16T12:45:54.353Z,41.13
2023-03-16T12:46:55.157Z,41.93
2023-03-16T12:47:54.232Z,40.51
2023-03-16T12:48:54.259Z,40.29
2023-03-16T12:49:54.288Z,40.90
2023-03-16T12:50:54.138Z,41.52
2023-03-16T12:51:54.112Z,43.37